sensor_id;sensor_type;location;lat;lon;timestamp;temperature;humidity
9466;DHT22;4771;48.726;9.006;2023-08-06T00:01:35;15.80;99.90
9466;DHT22;4771;48.726;9.006;2023-08-06T00:04:02;15.80;99.90
9466;DHT22;4771;48.726;9.006;2023-08-06T00:06:29;15.80;99.90
9466;DHT22;4771;48.726;9.006;2023-08-06T00:08:56;15.80;99.90
9466;DHT22;4771;48.726;9.006;2023-08-06T00:11:23;15.70;99.90
9466;DHT22;4771;48.726;9.006;2023-08-06T00:13:50;15.70;99.90
9466;DHT22;4771;48.726;9.006;2023-08-06T00:16:17;15.70;99.90
9466;DHT22;4771;48.726;9.006;2023-08-06T00:18:45;15.70;99.90
9466;DHT22;4771;48.726;9.006;2023-08-06T00:21:12;15.70;99.90
9466;DHT22;4771;48.726;9.006;2023-08-06T00:23:39;15.60;99.90
9466;DHT22;4771;48.726;9.006;2023-08-06T00:26:05;15.60;99.90
9466;DHT22;4771;48.726;9.006;2023-08-06T00:28:32;15.60;99.90
9466;DHT22;4771;48.726;9.006;2023-08-06T00:30:59;15.60;99.90
9466;DHT22;4771;48.726;9.006;2023-08-06T00:33:26;15.50;99.90
9466;DHT22;4771;48.726;9.006;2023-08-06T00:35:54;15.50;99.90
9466;DHT22;4771;48.726;9.006;2023-08-06T00:38:21;15.50;99.90
9466;DHT22;4771;48.726;9.006;2023-08-06T00:40:48;15.50;99.90
9466;DHT22;4771;48.726;9.006;2023-08-06T00:43:15;15.40;99.90
9466;DHT22;4771;48.726;9.006;2023-08-06T00:45:42;15.40;99.90
9466;DHT22;4771;48.726;9.006;2023-08-06T00:48:10;15.40;99.90
9466;DHT22;4771;48.726;9.006;2023-08-06T00:50:37;15.30;99.90
9466;DHT22;4771;48.726;9.006;2023-08-06T00:53:05;15.30;99.90
9466;DHT22;4771;48.726;9.006;2023-08-06T00:55:33;15.30;99.90
9466;DHT22;4771;48.726;9.006;2023-08-06T00:58:00;15.20;99.90
9466;DHT22;4771;48.726;9.006;2023-08-06T01:00:27;15.20;99.90
9466;DHT22;4771;48.726;9.006;2023-08-06T01:02:55;15.20;99.90
9466;DHT22;4771;48.726;9.006;2023-08-06T01:05:22;15.10;99.90
9466;DHT22;4771;48.726;9.006;2023-08-06T01:08:01;15.10;99.90
9466;DHT22;4771;48.726;9.006;2023-08-06T01:10:40;15.10;99.90
9466;DHT22;4771;48.726;9.006;2023-08-06T01:13:19;15.10;99.90
9466;DHT22;4771;48.726;9.006;2023-08-06T01:15:50;15.20;99.90
9466;DHT22;4771;48.726;9.006;2023-08-06T01:18:19;15.30;99.90
9466;DHT22;4771;48.726;9.006;2023-08-06T01:20:48;15.30;99.90
9466;DHT22;4771;48.726;9.006;2023-08-06T01:23:15;15.30;99.90
9466;DHT22;4771;48.726;9.006;2023-08-06T01:25:48;15.30;99.90
9466;DHT22;4771;48.726;9.006;2023-08-06T01:28:21;15.30;99.90
9466;DHT22;4771;48.726;9.006;2023-08-06T01:30:50;15.40;99.90
9466;DHT22;4771;48.726;9.006;2023-08-06T01:33:21;15.40;99.90
9466;DHT22;4771;48.726;9.006;2023-08-06T01:35:51;15.30;99.90
9466;DHT22;4771;48.726;9.006;2023-08-06T01:38:19;15.30;99.90
9466;DHT22;4771;48.726;9.006;2023-08-06T01:40:46;15.30;99.90
9466;DHT22;4771;48.726;9.006;2023-08-06T01:43:13;15.30;99.90
9466;DHT22;4771;48.726;9.006;2023-08-06T01:45:41;15.20;99.90
9466;DHT22;4771;48.726;9.006;2023-08-06T01:48:08;15.30;99.90
9466;DHT22;4771;48.726;9.006;2023-08-06T01:50:35;15.30;99.90
9466;DHT22;4771;48.726;9.006;2023-08-06T01:53:03;15.30;99.90
9466;DHT22;4771;48.726;9.006;2023-08-06T01:55:30;15.40;99.90
9466;DHT22;4771;48.726;9.006;2023-08-06T01:57:57;15.30;99.90
9466;DHT22;4771;48.726;9.006;2023-08-06T02:00:23;15.40;99.90
9466;DHT22;4771;48.726;9.006;2023-08-06T02:02:50;15.20;99.90
9466;DHT22;4771;48.726;9.006;2023-08-06T02:05:17;15.20;99.90
9466;DHT22;4771;48.726;9.006;2023-08-06T02:07:44;15.20;99.90
9466;DHT22;4771;48.726;9.006;2023-08-06T02:10:12;15.10;99.90
9466;DHT22;4771;48.726;9.006;2023-08-06T02:12:39;15.20;99.90
9466;DHT22;4771;48.726;9.006;2023-08-06T02:15:07;15.20;99.90
9466;DHT22;4771;48.726;9.006;2023-08-06T02:17:34;15.20;99.90
9466;DHT22;4771;48.726;9.006;2023-08-06T02:20:01;15.30;99.90
9466;DHT22;4771;48.726;9.006;2023-08-06T02:22:28;15.30;99.90
9466;DHT22;4771;48.726;9.006;2023-08-06T02:24:55;15.20;99.90
9466;DHT22;4771;48.726;9.006;2023-08-06T02:27:23;15.20;99.90
9466;DHT22;4771;48.726;9.006;2023-08-06T02:29:50;15.20;99.90
9466;DHT22;4771;48.726;9.006;2023-08-06T02:32:17;15.10;99.90
9466;DHT22;4771;48.726;9.006;2023-08-06T02:34:44;15.10;99.90
9466;DHT22;4771;48.726;9.006;2023-08-06T02:37:10;15.10;99.90
9466;DHT22;4771;48.726;9.006;2023-08-06T02:39:37;15.20;99.90
9466;DHT22;4771;48.726;9.006;2023-08-06T02:42:06;15.20;99.90
9466;DHT22;4771;48.726;9.006;2023-08-06T02:44:34;15.20;99.90
9466;DHT22;4771;48.726;9.006;2023-08-06T02:47:01;15.20;99.90
9466;DHT22;4771;48.726;9.006;2023-08-06T02:49:28;15.20;99.90
9466;DHT22;4771;48.726;9.006;2023-08-06T02:51:55;15.20;99.90
9466;DHT22;4771;48.726;9.006;2023-08-06T02:54:22;15.20;99.90
9466;DHT22;4771;48.726;9.006;2023-08-06T02:56:49;15.20;99.90
9466;DHT22;4771;48.726;9.006;2023-08-06T02:59:15;15.20;99.90
9466;DHT22;4771;48.726;9.006;2023-08-06T03:01:44;15.30;99.90
9466;DHT22;4771;48.726;9.006;2023-08-06T03:04:10;15.30;99.90
9466;DHT22;4771;48.726;9.006;2023-08-06T03:06:37;15.30;99.90
9466;DHT22;4771;48.726;9.006;2023-08-06T03:09:04;15.30;99.90
9466;DHT22;4771;48.726;9.006;2023-08-06T03:11:31;15.30;99.90
9466;DHT22;4771;48.726;9.006;2023-08-06T03:13:58;15.30;99.90
9466;DHT22;4771;48.726;9.006;2023-08-06T03:16:25;15.30;99.90
9466;DHT22;4771;48.726;9.006;2023-08-06T03:18:53;15.30;99.90
9466;DHT22;4771;48.726;9.006;2023-08-06T03:21:20;15.30;99.90
9466;DHT22;4771;48.726;9.006;2023-08-06T03:23:47;15.30;99.90
9466;DHT22;4771;48.726;9.006;2023-08-06T03:26:14;15.30;99.90
9466;DHT22;4771;48.726;9.006;2023-08-06T03:28:41;15.30;99.90
9466;DHT22;4771;48.726;9.006;2023-08-06T03:31:08;15.30;99.90
9466;DHT22;4771;48.726;9.006;2023-08-06T03:33:34;15.30;99.90
9466;DHT22;4771;48.726;9.006;2023-08-06T03:36:03;15.20;99.90
9466;DHT22;4771;48.726;9.006;2023-08-06T03:38:30;15.20;99.90
9466;DHT22;4771;48.726;9.006;2023-08-06T03:40:57;15.30;99.90
9466;DHT22;4771;48.726;9.006;2023-08-06T03:43:24;15.20;99.90
9466;DHT22;4771;48.726;9.006;2023-08-06T03:45:51;15.30;99.90
9466;DHT22;4771;48.726;9.006;2023-08-06T03:48:18;15.30;99.90
9466;DHT22;4771;48.726;9.006;2023-08-06T03:50:44;15.30;99.90
9466;DHT22;4771;48.726;9.006;2023-08-06T03:53:13;15.30;99.90
9466;DHT22;4771;48.726;9.006;2023-08-06T03:55:39;15.30;99.90
9466;DHT22;4771;48.726;9.006;2023-08-06T03:58:06;15.30;99.90
9466;DHT22;4771;48.726;9.006;2023-08-06T04:00:33;15.30;99.90
9466;DHT22;4771;48.726;9.006;2023-08-06T04:03:00;15.30;99.90
9466;DHT22;4771;48.726;9.006;2023-08-06T04:05:27;15.20;99.90
9466;DHT22;4771;48.726;9.006;2023-08-06T04:07:54;15.30;99.90
9466;DHT22;4771;48.726;9.006;2023-08-06T04:10:22;15.30;99.90
9466;DHT22;4771;48.726;9.006;2023-08-06T04:12:49;15.20;99.90
9466;DHT22;4771;48.726;9.006;2023-08-06T04:15:16;15.30;99.90
9466;DHT22;4771;48.726;9.006;2023-08-06T04:17:42;15.20;99.90
9466;DHT22;4771;48.726;9.006;2023-08-06T04:20:10;15.20;99.90
9466;DHT22;4771;48.726;9.006;2023-08-06T04:22:36;15.10;99.90
9466;DHT22;4771;48.726;9.006;2023-08-06T04:25:04;15.10;99.90
9466;DHT22;4771;48.726;9.006;2023-08-06T04:27:32;15.20;99.90
9466;DHT22;4771;48.726;9.006;2023-08-06T04:29:59;15.20;99.90
9466;DHT22;4771;48.726;9.006;2023-08-06T04:32:26;15.20;99.90
9466;DHT22;4771;48.726;9.006;2023-08-06T04:34:55;14.90;99.90
9466;DHT22;4771;48.726;9.006;2023-08-06T04:37:23;14.80;99.90
9466;DHT22;4771;48.726;9.006;2023-08-06T04:39:49;14.90;99.90
9466;DHT22;4771;48.726;9.006;2023-08-06T04:42:16;14.90;99.90
9466;DHT22;4771;48.726;9.006;2023-08-06T04:44:44;15.00;99.90
9466;DHT22;4771;48.726;9.006;2023-08-06T04:47:11;15.00;99.90
9466;DHT22;4771;48.726;9.006;2023-08-06T04:49:38;15.00;99.90
9466;DHT22;4771;48.726;9.006;2023-08-06T04:52:05;15.10;99.90
9466;DHT22;4771;48.726;9.006;2023-08-06T04:54:33;15.10;99.90
9466;DHT22;4771;48.726;9.006;2023-08-06T04:57:00;15.00;99.90
9466;DHT22;4771;48.726;9.006;2023-08-06T04:59:27;15.00;99.90
9466;DHT22;4771;48.726;9.006;2023-08-06T05:01:55;15.10;99.90
9466;DHT22;4771;48.726;9.006;2023-08-06T05:04:22;14.90;99.90
9466;DHT22;4771;48.726;9.006;2023-08-06T05:06:48;15.10;99.90
9466;DHT22;4771;48.726;9.006;2023-08-06T05:09:15;15.10;99.90
9466;DHT22;4771;48.726;9.006;2023-08-06T05:11:42;15.10;99.90
9466;DHT22;4771;48.726;9.006;2023-08-06T05:14:09;15.10;99.90
9466;DHT22;4771;48.726;9.006;2023-08-06T05:16:36;15.10;99.90
9466;DHT22;4771;48.726;9.006;2023-08-06T05:19:04;15.10;99.90
9466;DHT22;4771;48.726;9.006;2023-08-06T05:21:31;15.20;99.90
9466;DHT22;4771;48.726;9.006;2023-08-06T05:23:58;15.10;99.90
9466;DHT22;4771;48.726;9.006;2023-08-06T05:26:24;15.10;99.90
9466;DHT22;4771;48.726;9.006;2023-08-06T05:28:51;15.20;99.90
9466;DHT22;4771;48.726;9.006;2023-08-06T05:31:18;15.20;99.90
9466;DHT22;4771;48.726;9.006;2023-08-06T05:33:45;15.10;99.90
9466;DHT22;4771;48.726;9.006;2023-08-06T05:36:13;15.00;99.90
9466;DHT22;4771;48.726;9.006;2023-08-06T05:38:40;15.00;99.90
9466;DHT22;4771;48.726;9.006;2023-08-06T05:41:07;15.00;99.90
9466;DHT22;4771;48.726;9.006;2023-08-06T05:43:34;15.10;99.90
9466;DHT22;4771;48.726;9.006;2023-08-06T05:46:00;15.00;99.90
9466;DHT22;4771;48.726;9.006;2023-08-06T05:48:27;15.00;99.90
9466;DHT22;4771;48.726;9.006;2023-08-06T05:50:54;15.00;99.90
9466;DHT22;4771;48.726;9.006;2023-08-06T05:53:22;15.00;99.90
9466;DHT22;4771;48.726;9.006;2023-08-06T05:55:50;15.00;99.90
9466;DHT22;4771;48.726;9.006;2023-08-06T05:58:17;15.10;99.90
9466;DHT22;4771;48.726;9.006;2023-08-06T06:00:45;14.90;99.90
9466;DHT22;4771;48.726;9.006;2023-08-06T06:03:12;14.90;99.90
9466;DHT22;4771;48.726;9.006;2023-08-06T06:05:39;14.90;99.90
9466;DHT22;4771;48.726;9.006;2023-08-06T06:08:06;14.80;99.90
9466;DHT22;4771;48.726;9.006;2023-08-06T06:10:35;14.80;99.90
9466;DHT22;4771;48.726;9.006;2023-08-06T06:13:02;14.80;99.90
9466;DHT22;4771;48.726;9.006;2023-08-06T06:15:30;14.90;99.90
9466;DHT22;4771;48.726;9.006;2023-08-06T06:17:57;15.00;99.90
9466;DHT22;4771;48.726;9.006;2023-08-06T06:20:24;15.10;99.90
9466;DHT22;4771;48.726;9.006;2023-08-06T06:22:51;15.00;99.90
9466;DHT22;4771;48.726;9.006;2023-08-06T06:25:18;15.10;99.90
9466;DHT22;4771;48.726;9.006;2023-08-06T06:27:46;15.10;99.90
9466;DHT22;4771;48.726;9.006;2023-08-06T06:30:13;15.20;99.90
9466;DHT22;4771;48.726;9.006;2023-08-06T06:32:40;15.20;99.90
9466;DHT22;4771;48.726;9.006;2023-08-06T06:35:08;15.20;99.90
9466;DHT22;4771;48.726;9.006;2023-08-06T06:37:34;15.30;99.90
9466;DHT22;4771;48.726;9.006;2023-08-06T06:40:01;15.30;99.90
9466;DHT22;4771;48.726;9.006;2023-08-06T06:42:29;15.30;99.90
9466;DHT22;4771;48.726;9.006;2023-08-06T06:44:57;15.40;99.90
9466;DHT22;4771;48.726;9.006;2023-08-06T06:47:24;15.30;99.90
9466;DHT22;4771;48.726;9.006;2023-08-06T06:49:51;15.40;99.90
9466;DHT22;4771;48.726;9.006;2023-08-06T06:52:18;15.40;99.90
9466;DHT22;4771;48.726;9.006;2023-08-06T06:54:44;15.40;99.90
9466;DHT22;4771;48.726;9.006;2023-08-06T06:57:11;15.30;99.90
9466;DHT22;4771;48.726;9.006;2023-08-06T06:59:38;15.30;99.90
9466;DHT22;4771;48.726;9.006;2023-08-06T07:02:07;15.20;99.90
9466;DHT22;4771;48.726;9.006;2023-08-06T07:04:33;15.10;99.90
9466;DHT22;4771;48.726;9.006;2023-08-06T07:07:00;15.10;99.90
9466;DHT22;4771;48.726;9.006;2023-08-06T07:09:27;15.10;99.90
9466;DHT22;4771;48.726;9.006;2023-08-06T07:11:54;15.20;99.90
9466;DHT22;4771;48.726;9.006;2023-08-06T07:14:21;15.20;99.90
9466;DHT22;4771;48.726;9.006;2023-08-06T07:16:48;15.20;99.90
9466;DHT22;4771;48.726;9.006;2023-08-06T07:19:16;15.20;99.90
9466;DHT22;4771;48.726;9.006;2023-08-06T07:21:46;15.30;99.90
9466;DHT22;4771;48.726;9.006;2023-08-06T07:24:13;15.30;99.90
9466;DHT22;4771;48.726;9.006;2023-08-06T07:26:40;15.30;99.90
9466;DHT22;4771;48.726;9.006;2023-08-06T07:29:07;15.30;99.90
9466;DHT22;4771;48.726;9.006;2023-08-06T07:31:34;15.30;99.90
9466;DHT22;4771;48.726;9.006;2023-08-06T07:34:00;15.30;99.90
9466;DHT22;4771;48.726;9.006;2023-08-06T07:36:29;15.30;99.90
9466;DHT22;4771;48.726;9.006;2023-08-06T07:38:56;15.30;99.90
9466;DHT22;4771;48.726;9.006;2023-08-06T07:41:23;15.30;99.90
9466;DHT22;4771;48.726;9.006;2023-08-06T07:43:50;15.30;99.90
9466;DHT22;4771;48.726;9.006;2023-08-06T07:46:16;15.30;99.90
9466;DHT22;4771;48.726;9.006;2023-08-06T07:48:43;15.30;99.90
9466;DHT22;4771;48.726;9.006;2023-08-06T07:51:10;15.30;99.90
9466;DHT22;4771;48.726;9.006;2023-08-06T07:53:38;15.30;99.90
9466;DHT22;4771;48.726;9.006;2023-08-06T07:56:05;15.30;99.90
9466;DHT22;4771;48.726;9.006;2023-08-06T07:58:32;15.40;99.90
9466;DHT22;4771;48.726;9.006;2023-08-06T08:00:59;15.40;99.90
9466;DHT22;4771;48.726;9.006;2023-08-06T08:03:26;15.40;99.90
9466;DHT22;4771;48.726;9.006;2023-08-06T08:05:55;15.50;99.90
9466;DHT22;4771;48.726;9.006;2023-08-06T08:08:23;15.50;99.90
9466;DHT22;4771;48.726;9.006;2023-08-06T08:10:51;15.50;99.90
9466;DHT22;4771;48.726;9.006;2023-08-06T08:13:18;15.50;99.90
9466;DHT22;4771;48.726;9.006;2023-08-06T08:15:45;15.50;99.90
9466;DHT22;4771;48.726;9.006;2023-08-06T08:18:12;15.50;99.90
9466;DHT22;4771;48.726;9.006;2023-08-06T08:20:38;15.50;99.90
9466;DHT22;4771;48.726;9.006;2023-08-06T08:23:05;15.50;99.90
9466;DHT22;4771;48.726;9.006;2023-08-06T08:25:32;15.50;99.90
9466;DHT22;4771;48.726;9.006;2023-08-06T08:28:01;15.40;99.90
9466;DHT22;4771;48.726;9.006;2023-08-06T08:30:27;15.50;99.90
9466;DHT22;4771;48.726;9.006;2023-08-06T08:32:54;15.40;99.90
9466;DHT22;4771;48.726;9.006;2023-08-06T08:35:21;15.40;99.90
9466;DHT22;4771;48.726;9.006;2023-08-06T08:37:48;15.40;99.90
9466;DHT22;4771;48.726;9.006;2023-08-06T08:40:16;15.40;99.90
9466;DHT22;4771;48.726;9.006;2023-08-06T08:42:43;15.30;99.90
9466;DHT22;4771;48.726;9.006;2023-08-06T08:45:13;15.30;99.90
9466;DHT22;4771;48.726;9.006;2023-08-06T08:47:40;15.30;99.90
9466;DHT22;4771;48.726;9.006;2023-08-06T08:50:09;15.30;99.90
9466;DHT22;4771;48.726;9.006;2023-08-06T08:52:38;15.30;99.90
9466;DHT22;4771;48.726;9.006;2023-08-06T08:55:07;15.30;99.90
9466;DHT22;4771;48.726;9.006;2023-08-06T08:57:34;15.30;99.90
9466;DHT22;4771;48.726;9.006;2023-08-06T09:00:01;15.40;99.90
9466;DHT22;4771;48.726;9.006;2023-08-06T09:02:31;15.40;99.90
9466;DHT22;4771;48.726;9.006;2023-08-06T09:05:00;15.50;99.90
9466;DHT22;4771;48.726;9.006;2023-08-06T09:07:31;15.50;99.90
9466;DHT22;4771;48.726;9.006;2023-08-06T09:10:02;15.50;99.90
9466;DHT22;4771;48.726;9.006;2023-08-06T09:12:30;15.60;99.90
9466;DHT22;4771;48.726;9.006;2023-08-06T09:14:58;15.60;99.90
9466;DHT22;4771;48.726;9.006;2023-08-06T09:17:25;15.70;99.90
9466;DHT22;4771;48.726;9.006;2023-08-06T09:19:55;15.70;99.90
9466;DHT22;4771;48.726;9.006;2023-08-06T09:22:22;15.80;99.90
9466;DHT22;4771;48.726;9.006;2023-08-06T09:24:49;15.80;99.90
9466;DHT22;4771;48.726;9.006;2023-08-06T09:27:16;15.80;99.90
9466;DHT22;4771;48.726;9.006;2023-08-06T09:29:44;15.80;99.90
9466;DHT22;4771;48.726;9.006;2023-08-06T09:32:12;15.80;99.90
9466;DHT22;4771;48.726;9.006;2023-08-06T09:34:39;15.70;99.90
9466;DHT22;4771;48.726;9.006;2023-08-06T09:37:09;15.60;99.90
9466;DHT22;4771;48.726;9.006;2023-08-06T09:39:39;15.70;99.90
9466;DHT22;4771;48.726;9.006;2023-08-06T09:42:06;15.70;99.90
9466;DHT22;4771;48.726;9.006;2023-08-06T09:44:33;15.70;99.90
9466;DHT22;4771;48.726;9.006;2023-08-06T09:47:02;15.60;99.90
9466;DHT22;4771;48.726;9.006;2023-08-06T09:49:41;15.60;99.90
9466;DHT22;4771;48.726;9.006;2023-08-06T09:52:12;15.60;99.90
9466;DHT22;4771;48.726;9.006;2023-08-06T09:54:43;15.70;99.90
9466;DHT22;4771;48.726;9.006;2023-08-06T09:57:11;15.60;99.90
9466;DHT22;4771;48.726;9.006;2023-08-06T09:59:39;15.70;99.90
9466;DHT22;4771;48.726;9.006;2023-08-06T10:02:12;15.70;99.90
9466;DHT22;4771;48.726;9.006;2023-08-06T10:04:39;15.70;99.90
9466;DHT22;4771;48.726;9.006;2023-08-06T10:07:06;15.70;99.90
9466;DHT22;4771;48.726;9.006;2023-08-06T10:09:34;15.60;99.90
9466;DHT22;4771;48.726;9.006;2023-08-06T10:12:02;15.60;99.90
9466;DHT22;4771;48.726;9.006;2023-08-06T10:14:32;15.70;99.90
9466;DHT22;4771;48.726;9.006;2023-08-06T10:17:00;15.60;99.90
9466;DHT22;4771;48.726;9.006;2023-08-06T10:19:27;15.70;99.90
9466;DHT22;4771;48.726;9.006;2023-08-06T10:22:22;15.70;99.90
9466;DHT22;4771;48.726;9.006;2023-08-06T10:25:19;15.70;99.90
9466;DHT22;4771;48.726;9.006;2023-08-06T10:28:00;15.70;99.90
9466;DHT22;4771;48.726;9.006;2023-08-06T10:30:29;15.60;99.90
9466;DHT22;4771;48.726;9.006;2023-08-06T10:32:58;15.40;99.90
9466;DHT22;4771;48.726;9.006;2023-08-06T10:35:30;15.40;99.90
9466;DHT22;4771;48.726;9.006;2023-08-06T10:38:04;15.20;99.90
9466;DHT22;4771;48.726;9.006;2023-08-06T10:40:33;15.20;99.90
9466;DHT22;4771;48.726;9.006;2023-08-06T10:43:00;15.10;99.90
9466;DHT22;4771;48.726;9.006;2023-08-06T10:45:27;15.10;99.90
9466;DHT22;4771;48.726;9.006;2023-08-06T10:47:56;15.20;99.90
9466;DHT22;4771;48.726;9.006;2023-08-06T10:50:24;14.90;99.90
9466;DHT22;4771;48.726;9.006;2023-08-06T10:52:52;14.90;99.90
9466;DHT22;4771;48.726;9.006;2023-08-06T10:55:26;14.80;99.90
9466;DHT22;4771;48.726;9.006;2023-08-06T10:57:56;14.60;99.90
9466;DHT22;4771;48.726;9.006;2023-08-06T11:00:24;14.70;99.90
9466;DHT22;4771;48.726;9.006;2023-08-06T11:02:52;14.40;99.90
9466;DHT22;4771;48.726;9.006;2023-08-06T11:05:19;14.40;99.90
9466;DHT22;4771;48.726;9.006;2023-08-06T11:07:46;14.40;99.90
9466;DHT22;4771;48.726;9.006;2023-08-06T11:10:15;14.20;99.90
9466;DHT22;4771;48.726;9.006;2023-08-06T11:12:42;14.20;99.90
9466;DHT22;4771;48.726;9.006;2023-08-06T11:15:10;14.20;99.90
9466;DHT22;4771;48.726;9.006;2023-08-06T11:17:39;14.20;99.90
9466;DHT22;4771;48.726;9.006;2023-08-06T11:20:07;14.20;99.90
9466;DHT22;4771;48.726;9.006;2023-08-06T11:22:36;14.20;99.90
9466;DHT22;4771;48.726;9.006;2023-08-06T11:25:04;14.10;99.90
9466;DHT22;4771;48.726;9.006;2023-08-06T11:27:31;14.10;99.90
9466;DHT22;4771;48.726;9.006;2023-08-06T11:29:58;14.10;99.90
9466;DHT22;4771;48.726;9.006;2023-08-06T11:32:26;14.10;99.90
9466;DHT22;4771;48.726;9.006;2023-08-06T11:34:53;13.90;99.90
9466;DHT22;4771;48.726;9.006;2023-08-06T11:37:22;13.80;99.90
9466;DHT22;4771;48.726;9.006;2023-08-06T11:39:50;13.90;99.90
9466;DHT22;4771;48.726;9.006;2023-08-06T11:42:17;13.90;99.90
9466;DHT22;4771;48.726;9.006;2023-08-06T11:44:44;13.90;99.90
9466;DHT22;4771;48.726;9.006;2023-08-06T11:47:14;13.90;99.90
9466;DHT22;4771;48.726;9.006;2023-08-06T11:49:43;13.80;99.90
9466;DHT22;4771;48.726;9.006;2023-08-06T11:52:14;13.80;99.90
9466;DHT22;4771;48.726;9.006;2023-08-06T11:54:41;13.80;99.90
9466;DHT22;4771;48.726;9.006;2023-08-06T11:57:08;13.80;99.90
9466;DHT22;4771;48.726;9.006;2023-08-06T11:59:37;13.80;99.90
9466;DHT22;4771;48.726;9.006;2023-08-06T12:02:04;13.80;99.90
9466;DHT22;4771;48.726;9.006;2023-08-06T12:05:02;13.90;99.90
9466;DHT22;4771;48.726;9.006;2023-08-06T12:07:30;13.90;99.90
9466;DHT22;4771;48.726;9.006;2023-08-06T12:09:57;13.90;99.90
9466;DHT22;4771;48.726;9.006;2023-08-06T12:12:25;14.00;99.90
9466;DHT22;4771;48.726;9.006;2023-08-06T12:14:54;13.90;99.90
9466;DHT22;4771;48.726;9.006;2023-08-06T12:17:21;13.80;99.90
9466;DHT22;4771;48.726;9.006;2023-08-06T12:19:48;13.70;99.90
9466;DHT22;4771;48.726;9.006;2023-08-06T12:22:16;13.80;99.90
9466;DHT22;4771;48.726;9.006;2023-08-06T12:24:44;13.80;99.90
9466;DHT22;4771;48.726;9.006;2023-08-06T12:27:12;13.80;99.90
9466;DHT22;4771;48.726;9.006;2023-08-06T12:29:41;13.80;99.90
9466;DHT22;4771;48.726;9.006;2023-08-06T12:32:08;13.70;99.90
9466;DHT22;4771;48.726;9.006;2023-08-06T12:34:35;13.70;99.90
9466;DHT22;4771;48.726;9.006;2023-08-06T12:37:02;13.80;99.90
9466;DHT22;4771;48.726;9.006;2023-08-06T12:39:31;13.80;99.90
9466;DHT22;4771;48.726;9.006;2023-08-06T12:41:58;13.80;99.90
9466;DHT22;4771;48.726;9.006;2023-08-06T12:44:25;13.70;99.90
9466;DHT22;4771;48.726;9.006;2023-08-06T12:46:52;13.80;99.90
9466;DHT22;4771;48.726;9.006;2023-08-06T12:49:19;13.80;99.90
9466;DHT22;4771;48.726;9.006;2023-08-06T12:51:47;13.90;99.90
9466;DHT22;4771;48.726;9.006;2023-08-06T12:54:15;13.90;99.90
9466;DHT22;4771;48.726;9.006;2023-08-06T12:56:44;14.00;99.90
9466;DHT22;4771;48.726;9.006;2023-08-06T12:59:11;13.90;99.90
9466;DHT22;4771;48.726;9.006;2023-08-06T13:01:38;14.00;99.90
9466;DHT22;4771;48.726;9.006;2023-08-06T13:04:05;14.10;99.90
9466;DHT22;4771;48.726;9.006;2023-08-06T13:06:32;14.20;99.90
9466;DHT22;4771;48.726;9.006;2023-08-06T13:09:01;14.30;99.90
9466;DHT22;4771;48.726;9.006;2023-08-06T13:11:29;14.30;99.90
9466;DHT22;4771;48.726;9.006;2023-08-06T13:14:03;14.30;99.90
9466;DHT22;4771;48.726;9.006;2023-08-06T13:16:30;14.40;99.90
9466;DHT22;4771;48.726;9.006;2023-08-06T13:18:57;14.70;99.90
9466;DHT22;4771;48.726;9.006;2023-08-06T13:21:24;14.80;99.90
9466;DHT22;4771;48.726;9.006;2023-08-06T13:23:51;14.90;99.90
9466;DHT22;4771;48.726;9.006;2023-08-06T13:26:18;15.00;99.90
9466;DHT22;4771;48.726;9.006;2023-08-06T13:28:45;15.00;99.90
9466;DHT22;4771;48.726;9.006;2023-08-06T13:31:13;14.80;99.90
9466;DHT22;4771;48.726;9.006;2023-08-06T13:33:40;14.70;99.90
9466;DHT22;4771;48.726;9.006;2023-08-06T13:36:07;14.70;99.90
9466;DHT22;4771;48.726;9.006;2023-08-06T13:38:34;14.80;99.90
9466;DHT22;4771;48.726;9.006;2023-08-06T13:41:01;14.80;99.90
9466;DHT22;4771;48.726;9.006;2023-08-06T13:43:28;14.70;99.90
9466;DHT22;4771;48.726;9.006;2023-08-06T13:45:55;14.70;99.90
9466;DHT22;4771;48.726;9.006;2023-08-06T13:48:24;14.70;99.90
9466;DHT22;4771;48.726;9.006;2023-08-06T13:50:51;14.60;99.90
9466;DHT22;4771;48.726;9.006;2023-08-06T13:53:18;14.60;99.90
9466;DHT22;4771;48.726;9.006;2023-08-06T13:55:45;14.60;99.90
9466;DHT22;4771;48.726;9.006;2023-08-06T13:58:12;14.60;99.90
9466;DHT22;4771;48.726;9.006;2023-08-06T14:00:38;14.60;99.90
9466;DHT22;4771;48.726;9.006;2023-08-06T14:03:05;14.70;99.90
9466;DHT22;4771;48.726;9.006;2023-08-06T14:05:34;14.80;99.90
9466;DHT22;4771;48.726;9.006;2023-08-06T14:08:00;14.90;99.90
9466;DHT22;4771;48.726;9.006;2023-08-06T14:10:27;14.80;99.90
9466;DHT22;4771;48.726;9.006;2023-08-06T14:12:54;14.90;99.90
9466;DHT22;4771;48.726;9.006;2023-08-06T14:15:21;15.00;99.90
9466;DHT22;4771;48.726;9.006;2023-08-06T14:17:48;15.00;99.90
9466;DHT22;4771;48.726;9.006;2023-08-06T14:20:15;15.00;99.90
9466;DHT22;4771;48.726;9.006;2023-08-06T14:22:43;14.80;99.90
9466;DHT22;4771;48.726;9.006;2023-08-06T14:25:10;14.80;99.90
9466;DHT22;4771;48.726;9.006;2023-08-06T14:27:37;14.70;99.90
9466;DHT22;4771;48.726;9.006;2023-08-06T14:30:06;14.50;99.90
9466;DHT22;4771;48.726;9.006;2023-08-06T14:32:33;14.30;99.90
9466;DHT22;4771;48.726;9.006;2023-08-06T14:35:00;13.80;99.90
9466;DHT22;4771;48.726;9.006;2023-08-06T14:37:27;13.70;99.90
9466;DHT22;4771;48.726;9.006;2023-08-06T14:39:55;13.70;99.90
9466;DHT22;4771;48.726;9.006;2023-08-06T14:42:22;13.60;99.90
9466;DHT22;4771;48.726;9.006;2023-08-06T14:44:49;13.70;99.90
9466;DHT22;4771;48.726;9.006;2023-08-06T14:47:16;13.70;99.90
9466;DHT22;4771;48.726;9.006;2023-08-06T14:49:43;13.80;99.90
9466;DHT22;4771;48.726;9.006;2023-08-06T14:52:10;13.80;99.90
9466;DHT22;4771;48.726;9.006;2023-08-06T14:54:37;13.80;99.90
9466;DHT22;4771;48.726;9.006;2023-08-06T14:57:05;13.80;99.90
9466;DHT22;4771;48.726;9.006;2023-08-06T14:59:33;13.80;99.90
9466;DHT22;4771;48.726;9.006;2023-08-06T15:02:00;13.90;99.90
9466;DHT22;4771;48.726;9.006;2023-08-06T15:04:27;13.80;99.90
9466;DHT22;4771;48.726;9.006;2023-08-06T15:06:56;13.80;99.90
9466;DHT22;4771;48.726;9.006;2023-08-06T15:09:23;13.80;99.90
9466;DHT22;4771;48.726;9.006;2023-08-06T15:11:50;13.90;99.90
9466;DHT22;4771;48.726;9.006;2023-08-06T15:14:18;14.10;99.90
9466;DHT22;4771;48.726;9.006;2023-08-06T15:16:47;14.30;99.90
9466;DHT22;4771;48.726;9.006;2023-08-06T15:19:13;14.60;99.90
9466;DHT22;4771;48.726;9.006;2023-08-06T15:21:40;14.70;99.90
9466;DHT22;4771;48.726;9.006;2023-08-06T15:24:09;14.80;99.90
9466;DHT22;4771;48.726;9.006;2023-08-06T15:26:36;14.80;99.90
9466;DHT22;4771;48.726;9.006;2023-08-06T15:29:02;14.90;99.90
9466;DHT22;4771;48.726;9.006;2023-08-06T15:31:36;14.70;99.90
9466;DHT22;4771;48.726;9.006;2023-08-06T15:34:04;14.70;99.90
9466;DHT22;4771;48.726;9.006;2023-08-06T15:36:32;14.60;99.90
9466;DHT22;4771;48.726;9.006;2023-08-06T15:38:59;14.70;99.90
9466;DHT22;4771;48.726;9.006;2023-08-06T15:41:26;14.90;99.90
9466;DHT22;4771;48.726;9.006;2023-08-06T15:43:51;15.00;99.90
9466;DHT22;4771;48.726;9.006;2023-08-06T15:46:18;15.00;99.90
9466;DHT22;4771;48.726;9.006;2023-08-06T15:48:47;15.00;99.90
9466;DHT22;4771;48.726;9.006;2023-08-06T15:51:13;15.00;99.90
9466;DHT22;4771;48.726;9.006;2023-08-06T15:53:40;14.90;99.90
9466;DHT22;4771;48.726;9.006;2023-08-06T15:56:07;15.00;99.90
9466;DHT22;4771;48.726;9.006;2023-08-06T15:58:34;15.10;99.90
9466;DHT22;4771;48.726;9.006;2023-08-06T16:01:01;15.00;99.90
9466;DHT22;4771;48.726;9.006;2023-08-06T16:03:28;14.90;99.90
9466;DHT22;4771;48.726;9.006;2023-08-06T16:05:57;14.80;99.90